createdAt,value
2019-01-02T00:00:30.761Z,31.17
2019-01-02T00:03:00.278Z,37.67
2019-01-02T00:05:29.965Z,28.57
2019-01-02T00:07:59.273Z,32.03
2019-01-02T00:10:28.802Z,28.57
2019-01-02T00:12:58.019Z,27.50
2019-01-02T00:15:27.636Z,40.87
2019-01-02T00:17:57.158Z,31.67
2019-01-02T00:20:26.429Z,36.63
2019-01-02T00:22:55.581Z,36.77
2019-01-02T00:25:24.819Z,36.57
2019-01-02T00:27:54.463Z,32.47
2019-01-02T00:30:23.895Z,42.20
2019-01-02T00:32:54.073Z,30.10
2019-01-02T00:35:23.319Z,48.37
2019-01-02T00:37:53.420Z,28.40
2019-01-02T00:40:22.664Z,33.67
2019-01-02T00:42:52.678Z,30.43
2019-01-02T00:45:23.413Z,32.77
2019-01-02T00:47:53.505Z,31.77
2019-01-02T00:50:22.690Z,28.97
2019-01-02T00:52:51.988Z,28.17
2019-01-02T00:55:21.286Z,25.70
2019-01-02T00:57:50.802Z,20.40
2019-01-02T01:00:25.456Z,22.80
2019-01-02T01:02:54.699Z,30.13
2019-01-02T01:05:23.913Z,34.10
2019-01-02T01:07:53.100Z,27.60
2019-01-02T01:10:22.526Z,30.73
2019-01-02T01:12:51.754Z,28.63
2019-01-02T01:15:20.985Z,27.67
2019-01-02T01:17:50.207Z,21.03
2019-01-02T01:20:20.577Z,23.60
2019-01-02T01:22:49.831Z,27.70
2019-01-02T01:25:19.082Z,19.57
2019-01-02T01:27:48.242Z,21.83
2019-01-02T01:30:17.975Z,25.30
2019-01-02T01:32:47.270Z,24.37
2019-01-02T01:35:18.014Z,30.33
2019-01-02T01:37:50.482Z,21.10
2019-01-02T01:40:19.632Z,26.33
2019-01-02T01:42:48.957Z,22.37
2019-01-02T01:45:18.497Z,22.63
2019-01-02T01:47:47.731Z,24.63
2019-01-02T01:50:17.286Z,24.83
2019-01-02T01:52:46.921Z,22.77
2019-01-02T01:55:16.068Z,21.80
2019-01-02T01:57:45.603Z,15.77
2019-01-02T02:00:19.820Z,29.03
2019-01-02T02:02:49.719Z,25.63
2019-01-02T02:05:19.322Z,21.53
2019-01-02T02:07:48.558Z,22.27
2019-01-02T02:10:18.854Z,21.97
2019-01-02T02:12:48.327Z,26.77
2019-01-02T02:15:17.800Z,33.00
2019-01-02T02:17:47.829Z,24.77
2019-01-02T02:20:17.128Z,22.97
2019-01-02T02:22:46.274Z,21.57
2019-01-02T02:25:17.939Z,27.07
2019-01-02T02:27:47.682Z,26.47
2019-01-02T02:30:17.173Z,16.20
2019-01-02T02:32:47.865Z,17.27
2019-01-02T02:35:17.432Z,23.70
2019-01-02T02:37:46.908Z,17.63
2019-01-02T02:40:16.363Z,23.33
2019-01-02T02:42:45.661Z,19.67
2019-01-02T02:45:15.649Z,28.53
2019-01-02T02:47:45.304Z,21.10
2019-01-02T02:50:16.508Z,20.67
2019-01-02T02:52:46.128Z,22.43
2019-01-02T02:55:21.663Z,24.30
2019-01-02T02:57:51.156Z,17.17
2019-01-02T03:00:20.307Z,21.77
2019-01-02T03:02:49.569Z,16.47
2019-01-02T03:05:18.785Z,18.17
2019-01-02T03:07:48.236Z,21.67
2019-01-02T03:10:18.257Z,24.73
2019-01-02T03:12:48.260Z,22.80
2019-01-02T03:15:37.009Z,20.43
2019-01-02T03:18:06.938Z,20.87
2019-01-02T03:20:36.220Z,22.10
2019-01-02T03:23:05.650Z,21.07
2019-01-02T03:25:35.636Z,19.33
2019-01-02T03:28:05.488Z,16.47
2019-01-02T03:30:34.983Z,16.90
2019-01-02T03:33:04.998Z,18.83
2019-01-02T03:35:34.290Z,30.47
2019-01-02T03:38:03.444Z,24.90
2019-01-02T03:40:32.568Z,19.77
2019-01-02T03:43:02.077Z,23.23
2019-01-02T03:45:31.310Z,24.77
2019-01-02T03:48:00.440Z,15.17
2019-01-02T03:50:29.576Z,18.33
2019-01-02T03:52:59.037Z,23.70
2019-01-02T03:55:28.557Z,22.67
2019-01-02T03:57:57.693Z,16.83
2019-01-02T04:00:26.833Z,20.50
2019-01-02T04:02:56.422Z,22.20
2019-01-02T04:05:26.657Z,15.30
2019-01-02T04:07:59.920Z,17.93
2019-01-02T04:10:29.092Z,16.20
2019-01-02T04:12:58.639Z,18.77
2019-01-02T04:15:28.264Z,16.23
2019-01-02T04:17:57.427Z,22.23
2019-01-02T04:20:26.586Z,18.87
2019-01-02T04:22:55.711Z,14.73
2019-01-02T04:25:24.870Z,14.40
2019-01-02T04:27:54.031Z,14.73
2019-01-02T04:30:23.189Z,21.43
2019-01-02T04:32:52.671Z,15.90
2019-01-02T04:35:21.837Z,18.00
2019-01-02T04:37:50.971Z,14.40
2019-01-02T04:40:20.114Z,14.87
2019-01-02T04:42:49.356Z,16.13
2019-01-02T04:45:18.593Z,20.80
2019-01-02T04:47:47.746Z,21.10
2019-01-02T04:50:17.788Z,21.20
2019-01-02T04:52:47.234Z,19.63
2019-01-02T04:55:17.023Z,16.67
2019-01-02T04:57:46.193Z,17.43
2019-01-02T05:00:17.132Z,18.40
2019-01-02T05:02:46.335Z,16.13
2019-01-02T05:05:15.494Z,18.03
2019-01-02T05:07:45.009Z,24.57
2019-01-02T05:10:15.323Z,19.50
2019-01-02T05:12:44.480Z,16.10
2019-01-02T05:15:14.501Z,21.90
2019-01-02T05:17:43.697Z,20.53
2019-01-02T05:20:15.502Z,21.30
2019-01-02T05:22:44.734Z,19.17
2019-01-02T05:25:14.261Z,23.30
2019-01-02T05:27:44.204Z,21.13
2019-01-02T05:30:16.012Z,18.63
2019-01-02T05:32:45.283Z,23.00
2019-01-02T05:35:14.492Z,23.70
2019-01-02T05:37:44.356Z,17.30
2019-01-02T05:40:16.077Z,26.23
2019-01-02T05:42:45.233Z,26.00
2019-01-02T05:45:15.289Z,30.60
2019-01-02T05:47:45.052Z,23.40
2019-01-02T05:50:14.262Z,18.87
2019-01-02T05:52:43.443Z,22.23
2019-01-02T05:55:12.768Z,18.10
2019-01-02T05:57:41.986Z,28.73
2019-01-02T06:00:13.471Z,26.37
2019-01-02T06:02:43.050Z,20.37
2019-01-02T06:05:12.589Z,25.57
2019-01-02T06:07:41.807Z,21.40
2019-01-02T06:10:15.317Z,33.80
2019-01-02T06:12:44.947Z,24.07
2019-01-02T06:15:15.971Z,16.77
2019-01-02T06:17:45.849Z,17.53
2019-01-02T06:20:16.795Z,26.17
2019-01-02T06:22:46.338Z,30.23
2019-01-02T06:25:15.569Z,21.80
2019-01-02T06:27:44.824Z,26.97
2019-01-02T06:30:14.225Z,31.40
2019-01-02T06:32:43.675Z,23.80
2019-01-02T06:35:12.830Z,19.80
2019-01-02T06:37:42.606Z,23.03
2019-01-02T06:40:13.161Z,21.43
2019-01-02T06:42:42.643Z,27.63
2019-01-02T06:45:14.344Z,24.90
2019-01-02T06:47:43.640Z,35.67
2019-01-02T06:50:22.200Z,29.73
2019-01-02T06:52:51.360Z,27.13
2019-01-02T06:55:20.780Z,30.50
2019-01-02T06:57:49.915Z,25.37
2019-01-02T07:00:26.004Z,23.50
2019-01-02T07:02:55.511Z,20.23
2019-01-02T07:05:25.245Z,23.30
2019-01-02T07:07:54.728Z,25.73
2019-01-02T07:10:24.255Z,33.03
2019-01-02T07:12:53.675Z,23.47
2019-01-02T07:15:23.621Z,18.40
2019-01-02T07:17:52.980Z,19.87
2019-01-02T07:20:22.152Z,20.13
2019-01-02T07:22:51.962Z,26.87
2019-01-02T07:25:21.135Z,21.30
2019-01-02T07:27:50.314Z,24.23
2019-01-02T07:30:21.947Z,23.67
2019-01-02T07:32:51.541Z,25.20
2019-01-02T07:36:01.177Z,24.07
2019-01-02T07:39:11.559Z,18.53
2019-01-02T07:42:15.171Z,25.47
2019-01-02T07:45:12.483Z,19.57
2019-01-02T07:48:27.801Z,18.97
2019-01-02T07:51:41.725Z,13.40
2019-01-02T07:54:47.600Z,21.90
2019-01-02T07:57:52.037Z,21.40
2019-01-02T08:00:51.325Z,14.20
2019-01-02T08:04:05.157Z,22.43
2019-01-02T08:07:14.327Z,16.63
2019-01-02T08:10:25.129Z,16.40
2019-01-02T08:13:38.163Z,19.03
2019-01-02T08:16:37.325Z,13.60
2019-01-02T08:19:38.397Z,19.77
2019-01-02T08:22:38.210Z,19.37
2019-01-02T08:25:50.684Z,14.60
2019-01-02T08:29:13.489Z,15.53
2019-01-02T08:32:10.977Z,16.80
2019-01-02T08:35:04.078Z,15.50
2019-01-02T08:37:58.970Z,19.00
2019-01-02T08:41:04.603Z,10.67
2019-01-02T08:44:00.230Z,22.90
2019-01-02T08:47:06.529Z,17.60
2019-01-02T08:50:18.948Z,18.73
2019-01-02T08:53:30.888Z,21.60
2019-01-02T08:56:40.537Z,25.00
2019-01-02T08:59:58.544Z,19.13
2019-01-02T09:02:51.672Z,15.47
2019-01-02T09:06:01.480Z,22.53
2019-01-02T09:09:15.217Z,20.43
2019-01-02T09:12:05.434Z,24.20
2019-01-02T09:15:37.143Z,17.07
2019-01-02T09:18:39.442Z,17.57
2019-01-02T09:21:44.337Z,23.97
2019-01-02T09:24:53.716Z,20.80
2019-01-02T09:28:04.082Z,24.00
2019-01-02T09:31:22.255Z,25.57
2019-01-02T09:34:22.449Z,21.77
2019-01-02T09:37:28.741Z,24.07
2019-01-02T09:40:38.049Z,17.63
2019-01-02T09:43:48.188Z,17.70
2019-01-02T09:46:30.771Z,11.87
2019-01-02T09:49:37.733Z,12.13
2019-01-02T09:52:50.117Z,11.47
2019-01-02T09:55:34.356Z,15.73
2019-01-02T09:58:43.913Z,19.67
2019-01-02T10:01:39.483Z,15.60
2019-01-02T10:04:37.772Z,22.27
2019-01-02T10:08:03.560Z,18.43
2019-01-02T10:11:16.030Z,15.03
2019-01-02T10:14:17.190Z,17.07
2019-01-02T10:17:22.345Z,21.33
2019-01-02T10:20:21.944Z,17.87
2019-01-02T10:23:32.989Z,20.20
2019-01-02T10:26:44.542Z,15.87
2019-01-02T10:29:28.500Z,14.67
2019-01-02T10:32:34.852Z,17.73
2019-01-02T10:35:34.883Z,22.80
2019-01-02T10:38:54.572Z,16.93
2019-01-02T10:41:47.084Z,22.43
2019-01-02T10:44:55.861Z,22.83
2019-01-02T10:47:47.142Z,16.63
2019-01-02T10:51:18.525Z,12.77
2019-01-02T10:54:37.477Z,20.83
2019-01-02T10:57:56.049Z,17.17
2019-01-02T11:01:01.499Z,18.00
2019-01-02T11:04:09.667Z,18.20
2019-01-02T11:07:15.005Z,12.80
2019-01-02T11:10:31.156Z,15.47
2019-01-02T11:13:28.665Z,16.03
2019-01-02T11:16:23.134Z,14.07
2019-01-02T11:19:23.733Z,16.70
2019-01-02T11:22:22.201Z,12.10
2019-01-02T11:25:24.402Z,15.70
2019-01-02T11:28:18.282Z,8.73
2019-01-02T11:31:11.870Z,11.97
2019-01-02T11:34:08.092Z,10.70
2019-01-02T11:37:12.497Z,14.37
2019-01-02T11:40:17.313Z,13.33
2019-01-02T11:43:41.250Z,8.40
2019-01-02T11:46:10.480Z,8.37
2019-01-02T11:48:39.701Z,8.60
2019-01-02T11:51:08.937Z,10.57
2019-01-02T11:53:38.168Z,10.30
2019-01-02T11:56:07.715Z,17.03
2019-01-02T11:58:37.061Z,13.13
2019-01-02T12:01:06.306Z,19.53
2019-01-02T12:03:35.439Z,19.53
2019-01-02T12:06:04.949Z,14.97
2019-01-02T12:08:34.218Z,14.53
2019-01-02T12:11:03.397Z,16.37
2019-01-02T12:13:32.583Z,19.33
2019-01-02T12:16:02.126Z,21.90
2019-01-02T12:18:31.404Z,14.30
2019-01-02T12:21:00.653Z,18.70
2019-01-02T12:23:30.199Z,16.20
2019-01-02T12:25:59.464Z,13.67
2019-01-02T12:28:28.658Z,20.57
2019-01-02T12:30:57.893Z,21.47
2019-01-02T12:33:27.050Z,23.37
2019-01-02T12:35:56.300Z,19.37
2019-01-02T12:38:25.550Z,22.40
2019-01-02T12:40:54.767Z,19.53
2019-01-02T12:43:24.048Z,13.50
2019-01-02T12:45:53.223Z,13.73
2019-01-02T12:48:22.510Z,13.10
2019-01-02T12:50:51.728Z,17.97
2019-01-02T12:53:20.890Z,18.60
2019-01-02T12:55:50.474Z,19.43
2019-01-02T12:58:20.014Z,15.13
2019-01-02T13:00:56.957Z,16.70
2019-01-02T13:04:34.796Z,12.03
2019-01-02T13:07:34.185Z,16.07
2019-01-02T13:10:26.371Z,16.60
2019-01-02T13:13:36.807Z,16.83
2019-01-02T13:16:28.172Z,15.37
2019-01-02T13:19:52.586Z,16.63
2019-01-02T13:23:11.466Z,17.27
2019-01-02T13:26:11.489Z,19.97
2019-01-02T13:29:12.046Z,15.00
2019-01-02T13:32:22.283Z,35.67
2019-01-02T13:35:12.491Z,45.13
2019-01-02T13:38:12.118Z,26.67
2019-01-02T13:41:09.562Z,20.20
2019-01-02T13:44:15.780Z,24.50
2019-01-02T13:46:52.909Z,18.60
2019-01-02T13:49:59.242Z,13.33
2019-01-02T13:52:28.402Z,20.67
2019-01-02T13:55:01.625Z,17.97
2019-01-02T13:57:30.836Z,23.87
2019-01-02T14:00:00.435Z,23.60
2019-01-02T14:02:30.047Z,22.03
2019-01-02T14:04:59.619Z,22.60
2019-01-02T14:07:28.815Z,24.87
2019-01-02T14:09:58.336Z,26.27
2019-01-02T14:12:27.536Z,22.80
2019-01-02T14:14:57.143Z,21.60
2019-01-02T14:17:26.641Z,16.73
2019-01-02T14:19:55.811Z,21.57
2019-01-02T14:22:25.395Z,30.53
2019-01-02T14:24:55.044Z,28.60
2019-01-02T14:27:24.285Z,28.77
2019-01-02T14:29:53.528Z,27.70
2019-01-02T14:32:22.700Z,29.17
2019-01-02T14:34:52.030Z,24.63
2019-01-02T14:37:21.554Z,33.70
2019-01-02T14:39:50.761Z,26.13
2019-01-02T14:42:19.904Z,29.90
2019-01-02T14:44:49.071Z,30.53
2019-01-02T14:47:18.230Z,25.47
2019-01-02T14:49:47.464Z,34.80
2019-01-02T14:52:16.711Z,32.87
2019-01-02T14:54:45.865Z,30.33
2019-01-02T14:57:15.040Z,32.73
2019-01-02T14:59:44.209Z,31.13
2019-01-02T15:02:13.496Z,23.67
2019-01-02T15:04:42.704Z,20.50
2019-01-02T15:07:11.955Z,40.07
2019-01-02T15:09:41.161Z,27.83
2019-01-02T15:12:11.137Z,24.40
2019-01-02T15:14:40.397Z,29.77
2019-01-02T15:17:09.574Z,32.83
2019-01-02T15:19:39.088Z,30.10
2019-01-02T15:22:08.270Z,29.17
2019-01-02T15:24:37.963Z,20.83
2019-01-02T15:27:07.142Z,24.17
2019-01-02T15:29:36.364Z,28.27
2019-01-02T15:32:05.575Z,32.30
2019-01-02T15:34:34.734Z,28.93
2019-01-02T15:37:03.905Z,22.60
2019-01-02T15:39:33.377Z,28.73
2019-01-02T15:42:02.569Z,23.87
2019-01-02T15:44:33.782Z,29.03
2019-01-02T15:47:08.335Z,23.73
2019-01-02T15:49:33.931Z,28.00
2019-01-02T15:52:03.180Z,20.17
2019-01-02T15:54:32.441Z,21.37
2019-01-02T15:57:01.684Z,23.83
2019-01-02T15:59:30.931Z,19.97
2019-01-02T16:02:00.101Z,17.20
2019-01-02T16:04:29.363Z,24.70
2019-01-02T16:06:59.262Z,30.77
2019-01-02T16:09:28.878Z,27.30
2019-01-02T16:11:58.495Z,29.43
2019-01-02T16:14:28.228Z,26.60
2019-01-02T16:16:57.790Z,27.30
2019-01-02T16:19:26.951Z,25.87
2019-01-02T16:21:56.215Z,18.77
2019-01-02T16:24:25.380Z,27.47
2019-01-02T16:26:54.946Z,22.13
2019-01-02T16:29:24.187Z,33.13
2019-01-02T16:31:53.409Z,41.23
2019-01-02T16:34:23.014Z,23.87
2019-01-02T16:36:52.265Z,25.03
2019-01-02T16:39:21.546Z,26.20
2019-01-02T16:41:51.040Z,22.83
2019-01-02T16:44:20.879Z,19.10
2019-01-02T16:46:50.147Z,24.67
2019-01-02T16:49:19.331Z,27.33
2019-01-02T16:51:48.764Z,27.30
2019-01-02T16:54:18.016Z,28.77
2019-01-02T16:56:47.204Z,31.30
2019-01-02T16:59:16.653Z,30.30
2019-01-02T17:01:45.857Z,32.37
2019-01-02T17:04:18.558Z,30.87
2019-01-02T17:06:48.173Z,29.23
2019-01-02T17:09:17.382Z,38.93
2019-01-02T17:11:46.608Z,32.73
2019-01-02T17:14:15.892Z,27.73
2019-01-02T17:16:45.087Z,29.80
2019-01-02T17:19:14.592Z,26.03
2019-01-02T17:21:43.908Z,21.83
2019-01-02T17:24:13.683Z,27.10
2019-01-02T17:26:43.196Z,25.40
2019-01-02T17:29:12.450Z,26.23
2019-01-02T17:31:41.669Z,20.17
2019-01-02T17:34:11.333Z,28.90
2019-01-02T17:36:40.764Z,27.33
2019-01-02T17:39:10.369Z,28.23
2019-01-02T17:41:39.538Z,21.03
2019-01-02T17:44:09.239Z,25.60
2019-01-02T17:46:38.492Z,30.10
2019-01-02T17:49:07.766Z,18.67
2019-01-02T17:51:37.419Z,22.53
2019-01-02T17:54:06.631Z,21.50
2019-01-02T17:56:35.899Z,22.13
2019-01-02T17:59:06.759Z,21.87
2019-01-02T18:01:36.004Z,20.27
2019-01-02T18:04:05.207Z,23.87
2019-01-02T18:06:34.780Z,27.07
2019-01-02T18:09:05.471Z,31.13
2019-01-02T18:11:34.694Z,26.70
2019-01-02T18:14:04.187Z,24.73
2019-01-02T18:16:33.496Z,23.50
2019-01-02T18:19:03.060Z,21.77
2019-01-02T18:21:32.342Z,20.53
2019-01-02T18:24:01.635Z,23.60
2019-01-02T18:26:30.878Z,19.37
2019-01-02T18:29:00.118Z,30.50
2019-01-02T18:31:29.316Z,26.27
2019-01-02T18:33:58.880Z,24.00
2019-01-02T18:36:28.199Z,22.10
2019-01-02T18:38:57.426Z,23.60
2019-01-02T18:41:26.615Z,21.80
2019-01-02T18:43:55.879Z,19.50
2019-01-02T18:46:25.206Z,28.03
2019-01-02T18:48:54.783Z,29.93
2019-01-02T18:51:24.029Z,26.50
2019-01-02T18:53:53.589Z,30.03
2019-01-02T18:56:22.966Z,30.67
2019-01-02T18:58:52.182Z,21.87
2019-01-02T19:01:21.417Z,26.17
2019-01-02T19:03:50.681Z,31.77
2019-01-02T19:06:20.227Z,33.40
2019-01-02T19:08:49.789Z,29.47
2019-01-02T19:11:19.050Z,23.33
2019-01-02T19:13:48.427Z,25.53
2019-01-02T19:16:21.540Z,30.70
2019-01-02T19:18:48.950Z,18.77
2019-01-02T19:21:18.399Z,19.57
2019-01-02T19:23:47.927Z,29.17
2019-01-02T19:26:17.132Z,26.27
2019-01-02T19:28:46.443Z,25.13
2019-01-02T19:31:15.723Z,25.63
2019-01-02T19:33:44.975Z,24.93
2019-01-02T19:36:14.229Z,18.17
2019-01-02T19:38:43.726Z,26.60
2019-01-02T19:41:12.881Z,21.20
2019-01-02T19:43:42.122Z,33.60
2019-01-02T19:46:11.362Z,25.83
2019-01-02T19:48:40.503Z,22.87
2019-01-02T19:51:09.814Z,27.00
2019-01-02T19:53:39.315Z,28.07
2019-01-02T19:56:08.589Z,28.50
2019-01-02T19:58:37.811Z,24.93
2019-01-02T20:01:06.967Z,23.40
2019-01-02T20:03:36.484Z,19.17
2019-01-02T20:06:05.739Z,19.77
2019-01-02T20:08:34.937Z,30.90
2019-01-02T20:11:04.216Z,21.10
2019-01-02T20:13:33.456Z,25.80
2019-01-02T20:16:02.690Z,25.23
2019-01-02T20:18:32.263Z,22.77
2019-01-02T20:21:01.560Z,21.43
2019-01-02T20:23:31.195Z,24.30
2019-01-02T20:26:00.741Z,25.53
2019-01-02T20:28:29.933Z,23.67
2019-01-02T20:30:59.094Z,23.30
2019-01-02T20:33:28.704Z,23.00
2019-01-02T20:35:57.994Z,25.70
2019-01-02T20:38:27.512Z,32.37
2019-01-02T20:40:57.036Z,16.33
2019-01-02T20:43:26.683Z,23.47
2019-01-02T20:45:55.867Z,19.90
2019-01-02T20:48:25.838Z,23.13
2019-01-02T20:50:55.330Z,24.37
2019-01-02T20:53:24.473Z,26.63
2019-01-02T20:55:54.037Z,23.67
2019-01-02T20:58:23.186Z,21.83
2019-01-02T21:00:52.733Z,29.33
2019-01-02T21:03:22.148Z,27.10
2019-01-02T21:05:51.299Z,26.83
2019-01-02T21:08:20.947Z,24.10
2019-01-02T21:10:50.098Z,27.97
2019-01-02T21:13:19.404Z,28.07
2019-01-02T21:15:48.656Z,25.13
2019-01-02T21:18:18.139Z,35.03
2019-01-02T21:20:47.613Z,25.03
2019-01-02T21:23:17.144Z,24.60
2019-01-02T21:25:46.390Z,20.47
2019-01-02T21:28:15.654Z,16.23
2019-01-02T21:30:44.807Z,22.57
2019-01-02T21:33:13.992Z,23.10
2019-01-02T21:35:43.218Z,21.70
2019-01-02T21:38:12.714Z,24.67
2019-01-02T21:40:41.865Z,20.73
2019-01-02T21:43:11.039Z,19.10
2019-01-02T21:45:40.521Z,22.93
2019-01-02T21:48:09.689Z,21.27
2019-01-02T21:50:38.843Z,20.23
2019-01-02T21:53:07.994Z,17.03
2019-01-02T21:55:37.243Z,25.13
2019-01-02T21:58:06.703Z,19.17
2019-01-02T22:00:36.471Z,30.83
2019-01-02T22:03:05.637Z,23.33
2019-01-02T22:05:34.838Z,25.10
2019-01-02T22:08:03.996Z,28.47
2019-01-02T22:10:33.510Z,24.57
2019-01-02T22:13:02.754Z,28.27
2019-01-02T22:15:32.272Z,30.23
2019-01-02T22:18:01.457Z,21.43
2019-01-02T22:20:31.218Z,25.23
2019-01-02T22:23:00.367Z,24.23
2019-01-02T22:25:29.508Z,20.13
2019-01-02T22:27:59.032Z,24.03
2019-01-02T22:30:28.260Z,15.17
2019-01-02T22:32:57.410Z,22.50
2019-01-02T22:35:26.986Z,22.70
2019-01-02T22:37:56.208Z,19.87
2019-01-02T22:40:25.348Z,20.07
2019-01-02T22:42:54.498Z,19.17
2019-01-02T22:45:23.982Z,21.03
2019-01-02T22:47:53.121Z,18.83
2019-01-02T22:50:22.912Z,22.30
2019-01-02T22:52:52.612Z,22.63
2019-01-02T22:55:21.737Z,22.83
2019-01-02T22:57:50.901Z,29.20
2019-01-02T23:00:54.854Z,28.73
2019-01-02T23:03:51.780Z,16.57
2019-01-02T23:06:42.874Z,24.97
2019-01-02T23:09:36.858Z,32.40
2019-01-02T23:12:28.402Z,25.80
2019-01-02T23:15:14.280Z,22.17
2019-01-02T23:18:01.688Z,22.80
2019-01-02T23:20:54.233Z,25.80
2019-01-02T23:23:41.261Z,25.20
2019-01-02T23:26:32.651Z,21.80
2019-01-02T23:29:19.437Z,28.50
2019-01-02T23:32:26.050Z,25.77
2019-01-02T23:35:20.259Z,23.00
2019-01-02T23:38:11.386Z,21.87
2019-01-02T23:40:56.519Z,18.33
2019-01-02T23:43:38.728Z,20.20
2019-01-02T23:46:26.229Z,20.63
2019-01-02T23:49:17.428Z,24.53
2019-01-02T23:52:18.898Z,24.37
2019-01-02T23:55:16.193Z,18.97
2019-01-02T23:58:04.372Z,21.77
